createdAt,value
2018-08-23T00:01:28.574Z,11.57
2018-08-23T00:04:06.525Z,11.50
2018-08-23T00:06:35.241Z,11.97
2018-08-23T00:09:05.004Z,11.37
2018-08-23T00:11:35.241Z,11.87
2018-08-23T00:14:03.700Z,11.70
2018-08-23T00:16:37.255Z,11.67
2018-08-23T00:19:05.690Z,12.60
2018-08-23T00:21:40.456Z,11.87
2018-08-23T00:24:11.083Z,12.67
2018-08-23T00:26:45.201Z,12.83
2018-08-23T00:29:19.540Z,13.93
2018-08-23T00:31:57.131Z,13.27
2018-08-23T00:34:36.552Z,13.50
2018-08-23T00:37:05.631Z,12.17
2018-08-23T00:39:34.005Z,12.97
2018-08-23T00:42:04.611Z,11.60
2018-08-23T00:44:48.393Z,13.27
2018-08-23T00:47:16.763Z,12.37
2018-08-23T00:49:45.404Z,11.77
2018-08-23T00:52:15.663Z,12.17
2018-08-23T00:54:45.614Z,12.67
2018-08-23T00:57:14.177Z,11.93
2018-08-23T00:59:43.022Z,12.53
2018-08-23T01:02:11.874Z,10.43
2018-08-23T01:04:44.126Z,12.67
2018-08-23T01:07:14.421Z,12.87
2018-08-23T01:09:44.916Z,14.37
2018-08-23T01:12:14.159Z,11.73
2018-08-23T01:14:42.676Z,12.87
2018-08-23T01:17:15.403Z,13.53
2018-08-23T01:19:49.173Z,12.97
2018-08-23T01:22:17.698Z,13.70
2018-08-23T01:24:48.293Z,12.07
2018-08-23T01:27:51.904Z,12.80
2018-08-23T01:30:22.947Z,13.83
2018-08-23T01:32:51.460Z,14.50
2018-08-23T01:35:19.983Z,13.93
2018-08-23T01:37:48.407Z,11.50
2018-08-23T01:40:16.857Z,12.40
2018-08-23T01:42:45.211Z,14.17
2018-08-23T01:45:13.599Z,12.43
2018-08-23T01:47:47.301Z,12.10
2018-08-23T01:50:15.841Z,13.10
2018-08-23T01:52:45.551Z,12.93
2018-08-23T01:55:14.890Z,13.37
2018-08-23T01:57:43.472Z,13.57
2018-08-23T02:00:12.814Z,13.20
2018-08-23T02:02:41.189Z,12.27
2018-08-23T02:05:09.617Z,12.70
2018-08-23T02:07:38.147Z,11.63
2018-08-23T02:10:06.608Z,13.93
2018-08-23T02:12:35.502Z,14.70
2018-08-23T02:15:05.705Z,13.77
2018-08-23T02:17:36.090Z,11.90
2018-08-23T02:20:04.563Z,12.30
2018-08-23T02:22:32.991Z,14.33
2018-08-23T02:25:01.310Z,12.93
2018-08-23T02:27:29.967Z,14.23
2018-08-23T02:29:58.486Z,12.70
2018-08-23T02:32:27.015Z,16.40
2018-08-23T02:35:04.547Z,14.60
2018-08-23T02:37:33.521Z,14.20
2018-08-23T02:40:01.898Z,13.43
2018-08-23T02:42:30.443Z,13.30
2018-08-23T02:45:03.175Z,14.10
2018-08-23T02:47:32.320Z,13.57
2018-08-23T02:50:00.843Z,15.17
2018-08-23T02:52:33.393Z,14.03
2018-08-23T02:55:01.911Z,14.20
2018-08-23T02:57:30.289Z,13.80
2018-08-23T02:59:58.849Z,13.90
2018-08-23T03:02:27.245Z,13.37
2018-08-23T03:04:55.715Z,14.00
2018-08-23T03:07:26.553Z,13.57
2018-08-23T03:09:55.023Z,14.40
2018-08-23T03:12:23.965Z,12.33
2018-08-23T03:14:52.412Z,14.50
2018-08-23T03:17:28.373Z,16.30
2018-08-23T03:20:17.569Z,13.53
2018-08-23T03:22:47.601Z,13.87
2018-08-23T03:25:17.428Z,13.90
2018-08-23T03:27:45.992Z,14.13
2018-08-23T03:30:15.589Z,12.83
2018-08-23T03:32:44.010Z,13.00
2018-08-23T03:35:12.496Z,13.60
2018-08-23T03:37:40.955Z,14.80
2018-08-23T03:40:11.539Z,13.50
2018-08-23T03:42:39.939Z,12.20
2018-08-23T03:45:14.429Z,13.43
2018-08-23T03:47:47.808Z,13.70
2018-08-23T03:50:16.271Z,13.33
2018-08-23T03:52:47.769Z,12.33
2018-08-23T03:55:18.779Z,13.27
2018-08-23T03:57:53.780Z,13.60
2018-08-23T04:00:27.459Z,13.20
2018-08-23T04:02:56.117Z,12.27
2018-08-23T04:05:24.669Z,13.03
2018-08-23T04:07:53.300Z,12.63
2018-08-23T04:10:21.928Z,14.37
2018-08-23T04:12:50.688Z,14.20
2018-08-23T04:15:30.557Z,13.60
2018-08-23T04:18:03.014Z,14.03
2018-08-23T04:20:31.511Z,12.90
2018-08-23T04:23:00.004Z,13.53
2018-08-23T04:25:28.443Z,14.00
2018-08-23T04:27:56.782Z,13.20
2018-08-23T04:30:25.193Z,14.77
2018-08-23T04:32:53.744Z,13.73
2018-08-23T04:35:27.805Z,14.13
2018-08-23T04:37:56.453Z,14.20
2018-08-23T04:40:24.794Z,13.60
2018-08-23T04:42:53.175Z,13.50
2018-08-23T04:45:25.295Z,14.70
2018-08-23T04:48:08.562Z,13.97
2018-08-23T04:50:38.124Z,15.37
2018-08-23T04:53:06.639Z,13.80
2018-08-23T04:55:35.027Z,14.40
2018-08-23T04:58:04.138Z,12.90
2018-08-23T05:00:32.867Z,15.70
2018-08-23T05:03:01.297Z,15.03
2018-08-23T05:05:29.836Z,13.60
2018-08-23T05:07:58.278Z,14.73
2018-08-23T05:10:26.706Z,13.80
2018-08-23T05:12:55.114Z,16.40
2018-08-23T05:15:23.515Z,15.10
2018-08-23T05:17:51.941Z,14.43
2018-08-23T05:20:21.112Z,15.10
2018-08-23T05:22:54.830Z,14.43
2018-08-23T05:25:24.009Z,14.83
2018-08-23T05:28:11.252Z,15.43
2018-08-23T05:30:39.553Z,14.87
2018-08-23T05:33:13.124Z,13.00
2018-08-23T05:35:41.589Z,14.10
2018-08-23T05:38:10.701Z,15.47
2018-08-23T05:40:46.404Z,13.77
2018-08-23T05:43:15.449Z,15.00
2018-08-23T05:45:49.112Z,14.67
2018-08-23T05:48:36.557Z,14.70
2018-08-23T05:51:13.188Z,15.20
2018-08-23T05:53:44.883Z,14.90
2018-08-23T05:56:13.307Z,14.20
2018-08-23T05:58:41.677Z,14.90
2018-08-23T06:01:10.074Z,14.07
2018-08-23T06:03:38.806Z,14.60
2018-08-23T06:06:07.488Z,14.53
2018-08-23T06:08:35.888Z,13.10
2018-08-23T06:11:07.859Z,12.97
2018-08-23T06:13:36.454Z,13.50
2018-08-23T06:16:04.800Z,13.00
2018-08-23T06:18:33.229Z,14.30
2018-08-23T06:21:01.660Z,16.50
2018-08-23T06:24:01.600Z,14.13
2018-08-23T06:26:46.404Z,16.23
2018-08-23T06:29:22.275Z,15.87
2018-08-23T06:32:15.858Z,17.30
2018-08-23T06:34:51.284Z,17.20
2018-08-23T06:37:21.333Z,16.30
2018-08-23T06:39:49.745Z,14.70
2018-08-23T06:42:18.042Z,14.83
2018-08-23T06:44:53.431Z,13.33
2018-08-23T06:47:23.449Z,9.93
2018-08-23T06:49:52.804Z,13.80
2018-08-23T06:52:36.366Z,13.90
2018-08-23T06:55:05.362Z,13.10
2018-08-23T06:57:40.486Z,14.10
2018-08-23T07:00:08.990Z,13.70
2018-08-23T07:02:41.648Z,14.77
2018-08-23T07:05:10.373Z,16.23
2018-08-23T07:07:38.786Z,16.00
2018-08-23T07:10:07.351Z,14.97
2018-08-23T07:12:35.677Z,14.13
2018-08-23T07:15:04.086Z,17.87
2018-08-23T07:17:32.938Z,23.00
2018-08-23T07:20:08.610Z,18.30
2018-08-23T07:22:37.074Z,14.23
2018-08-23T07:25:06.646Z,12.40
2018-08-23T07:27:35.006Z,14.10
2018-08-23T07:30:03.521Z,17.23
2018-08-23T07:32:31.886Z,14.53
2018-08-23T07:35:08.723Z,13.80
2018-08-23T07:37:38.498Z,19.13
2018-08-23T07:40:14.109Z,12.30
2018-08-23T07:42:43.808Z,13.50
2018-08-23T07:45:12.511Z,15.10
2018-08-23T07:47:49.655Z,15.27
2018-08-23T07:50:18.136Z,12.87
2018-08-23T07:52:47.861Z,14.77
2018-08-23T07:55:16.203Z,11.30
2018-08-23T07:57:45.151Z,13.90
2018-08-23T08:00:28.150Z,15.07
2018-08-23T08:02:56.583Z,14.90
2018-08-23T08:05:29.229Z,15.37
2018-08-23T08:07:57.597Z,14.90
2018-08-23T08:10:30.225Z,14.40
2018-08-23T08:12:58.625Z,14.33
2018-08-23T08:15:27.107Z,14.40
2018-08-23T08:17:55.477Z,11.63
2018-08-23T08:20:23.781Z,15.00
2018-08-23T08:22:52.244Z,13.43
2018-08-23T08:25:20.725Z,14.47
2018-08-23T08:27:50.293Z,16.47
2018-08-23T08:30:29.679Z,18.00
2018-08-23T08:32:58.226Z,15.50
2018-08-23T08:35:26.954Z,14.50
2018-08-23T08:37:55.657Z,12.60
2018-08-23T08:40:25.374Z,13.00
2018-08-23T08:42:54.744Z,13.33
2018-08-23T08:45:26.668Z,16.07
2018-08-23T08:48:05.662Z,17.47
2018-08-23T08:50:38.417Z,16.40
2018-08-23T08:53:06.777Z,11.97
2018-08-23T08:55:35.152Z,13.97
2018-08-23T08:58:03.694Z,11.57
2018-08-23T09:00:36.475Z,15.50
2018-08-23T09:03:04.902Z,17.57
2018-08-23T09:05:33.247Z,15.60
2018-08-23T09:08:01.612Z,14.80
2018-08-23T09:10:30.070Z,14.40
2018-08-23T09:12:58.467Z,13.80
2018-08-23T09:15:26.781Z,13.57
2018-08-23T09:17:55.133Z,13.23
2018-08-23T09:20:23.510Z,14.57
2018-08-23T09:22:54.377Z,12.73
2018-08-23T09:25:23.482Z,12.77
2018-08-23T09:27:52.202Z,12.63
2018-08-23T09:30:26.004Z,12.53
2018-08-23T09:32:54.687Z,11.70
2018-08-23T09:35:27.284Z,11.33
2018-08-23T09:37:58.063Z,9.90
2018-08-23T09:48:59.147Z,11.10
2018-08-23T09:51:30.499Z,10.40
2018-08-23T09:53:58.959Z,9.40
2018-08-23T09:59:17.967Z,10.30
2018-08-23T10:01:51.605Z,9.57
2018-08-23T10:04:25.438Z,11.03
2018-08-23T10:07:03.079Z,10.60
2018-08-23T10:09:35.581Z,10.20
2018-08-23T10:12:09.191Z,10.03
2018-08-23T10:14:42.670Z,8.80
2018-08-23T10:17:16.297Z,10.43
2018-08-23T10:19:50.039Z,9.30
2018-08-23T10:25:26.095Z,11.17
2018-08-23T10:30:45.455Z,10.20
2018-08-23T10:38:55.144Z,9.00
2018-08-23T10:41:23.549Z,8.90
2018-08-23T10:55:15.959Z,8.53
2018-08-23T11:00:34.746Z,8.57
2018-08-23T11:03:03.127Z,8.20
2018-08-23T11:05:31.475Z,7.93
2018-08-23T11:08:05.108Z,8.80
2018-08-23T11:10:38.892Z,8.53
2018-08-23T11:13:12.537Z,9.30
2018-08-23T11:15:40.864Z,8.43
2018-08-23T11:18:14.545Z,9.00
2018-08-23T11:20:49.294Z,8.50
2018-08-23T11:23:22.705Z,8.67
2018-08-23T11:25:57.553Z,8.57
2018-08-23T11:28:27.044Z,9.50
2018-08-23T11:30:59.545Z,8.20
2018-08-23T11:33:27.880Z,7.87
2018-08-23T11:35:56.258Z,8.00
2018-08-23T11:38:25.250Z,7.70
2018-08-23T11:41:11.537Z,8.13
2018-08-23T11:43:39.899Z,7.90
2018-08-23T11:48:58.838Z,7.20
2018-08-23T11:59:59.403Z,7.77
2018-08-23T12:02:37.014Z,6.70
2018-08-23T12:05:05.459Z,7.27
2018-08-23T12:07:33.858Z,6.53
2018-08-23T12:10:11.056Z,7.23
2018-08-23T12:12:39.398Z,6.60
2018-08-23T12:32:13.109Z,7.40
2018-08-23T12:37:37.317Z,8.27
2018-08-23T12:57:10.998Z,12.70
2018-08-23T12:59:39.384Z,15.83
2018-08-23T13:02:07.845Z,19.03
2018-08-23T13:04:36.200Z,17.20
2018-08-23T13:07:04.794Z,21.27
2018-08-23T13:12:23.547Z,17.30
2018-08-23T13:20:07.084Z,22.23
2018-08-23T13:22:40.083Z,22.00
2018-08-23T13:25:10.424Z,19.53
2018-08-23T13:27:38.863Z,20.40
2018-08-23T13:30:07.279Z,16.60
2018-08-23T13:32:35.515Z,17.70
2018-08-23T13:35:03.888Z,19.10
2018-08-23T13:37:32.221Z,19.70
2018-08-23T13:40:00.572Z,20.90
2018-08-23T13:42:29.114Z,20.43
2018-08-23T13:44:57.553Z,20.07
2018-08-23T13:47:25.937Z,15.53
2018-08-23T13:49:54.321Z,18.37
2018-08-23T13:52:22.832Z,17.57
2018-08-23T13:54:51.285Z,19.00
2018-08-23T13:57:19.631Z,19.07
2018-08-23T13:59:47.967Z,15.70
2018-08-23T14:02:16.533Z,16.07
2018-08-23T14:04:44.918Z,15.70
2018-08-23T14:07:13.315Z,15.07
2018-08-23T14:09:41.760Z,17.20
2018-08-23T14:12:10.093Z,16.03
2018-08-23T14:14:38.459Z,15.20
2018-08-23T14:17:06.797Z,14.00
2018-08-23T14:19:35.559Z,14.03
2018-08-23T14:22:03.860Z,15.93
2018-08-23T14:24:32.464Z,16.03
2018-08-23T14:27:00.886Z,13.33
2018-08-23T14:29:29.235Z,16.57
2018-08-23T14:31:57.569Z,14.10
2018-08-23T14:34:26.256Z,16.07
2018-08-23T14:36:54.650Z,15.50
2018-08-23T14:39:23.178Z,14.53
2018-08-23T14:41:51.608Z,15.70
2018-08-23T14:44:19.998Z,15.20
2018-08-23T14:46:53.591Z,11.00
2018-08-23T14:49:27.295Z,13.10
2018-08-23T14:51:55.651Z,9.67
2018-08-23T14:54:29.224Z,10.27
2018-08-23T14:58:01.559Z,9.30
2018-08-23T15:00:30.227Z,12.40
2018-08-23T15:02:59.181Z,13.60
2018-08-23T15:05:27.690Z,12.77
2018-08-23T15:07:56.129Z,12.73
2018-08-23T15:10:24.735Z,14.73
2018-08-23T15:12:53.053Z,13.00
2018-08-23T15:15:26.698Z,9.77
2018-08-23T15:23:36.734Z,10.70
2018-08-23T15:26:05.113Z,8.67
2018-08-23T15:28:33.700Z,9.80
2018-08-23T15:31:04.201Z,7.73
2018-08-23T15:33:32.589Z,9.20
2018-08-23T15:36:01.485Z,9.03
2018-08-23T15:38:30.094Z,8.37
2018-08-23T15:43:48.964Z,9.73
2018-08-23T15:55:14.364Z,9.80
2018-08-23T15:57:42.514Z,9.80
2018-08-23T16:11:37.639Z,8.90
2018-08-23T16:14:06.787Z,8.40
2018-08-23T16:16:40.480Z,9.60
2018-08-23T16:19:16.743Z,6.80
2018-08-23T16:21:49.309Z,8.00
2018-08-23T16:24:17.837Z,7.93
2018-08-23T16:29:36.376Z,8.60
2018-08-23T16:32:04.776Z,9.20
2018-08-23T16:34:33.085Z,9.57
2018-08-23T16:37:01.430Z,8.57
2018-08-23T16:39:29.773Z,8.40
2018-08-23T16:53:20.988Z,6.90
2018-08-23T16:58:55.390Z,8.30
2018-08-23T17:12:51.201Z,6.23
2018-08-23T17:32:23.399Z,7.23
2018-08-23T17:37:42.303Z,7.60
2018-08-23T17:40:10.694Z,7.30
2018-08-23T17:42:43.736Z,7.00
2018-08-23T17:45:13.239Z,8.10
2018-08-23T17:47:41.564Z,8.80
2018-08-23T17:50:10.026Z,8.30
2018-08-23T17:55:28.781Z,8.37
2018-08-23T18:12:15.339Z,11.30
2018-08-23T18:14:43.703Z,9.80
2018-08-23T18:37:06.944Z,12.63
2018-08-23T18:39:35.513Z,10.63
2018-08-23T18:42:03.865Z,13.77
2018-08-23T18:44:32.294Z,12.47
2018-08-23T18:49:51.936Z,12.37
2018-08-23T18:52:20.295Z,14.60
2018-08-23T18:54:48.695Z,13.43
2018-08-23T18:57:17.067Z,14.40
2018-08-23T18:59:46.393Z,13.00
2018-08-23T19:05:05.215Z,12.30
2018-08-23T19:07:39.039Z,13.33
2018-08-23T19:10:07.506Z,21.00
2018-08-23T19:12:35.882Z,23.80
2018-08-23T19:15:04.617Z,14.67
2018-08-23T19:17:36.243Z,15.47
2018-08-23T19:20:04.718Z,12.50
2018-08-23T19:22:33.119Z,13.60
2018-08-23T19:25:01.507Z,17.70
2018-08-23T19:27:29.885Z,16.50
2018-08-23T19:29:58.229Z,15.80
2018-08-23T19:32:26.633Z,16.70
2018-08-23T19:34:55.145Z,15.83
2018-08-23T19:37:24.234Z,14.90
2018-08-23T19:39:52.975Z,15.87
2018-08-23T19:42:21.709Z,13.23
2018-08-23T19:44:55.468Z,16.23
2018-08-23T19:47:29.251Z,12.57
2018-08-23T19:49:58.961Z,14.80
2018-08-23T19:52:27.573Z,15.90
2018-08-23T19:54:55.995Z,16.57
2018-08-23T19:57:24.362Z,15.40
2018-08-23T19:59:53.334Z,16.20
2018-08-23T20:02:21.681Z,18.40
2018-08-23T20:04:50.143Z,16.40
2018-08-23T20:07:18.697Z,16.13
2018-08-23T20:09:47.058Z,16.40
2018-08-23T20:12:16.074Z,16.70
2018-08-23T20:14:44.912Z,16.70
2018-08-23T20:17:13.311Z,15.50
2018-08-23T20:19:41.682Z,15.30
2018-08-23T20:22:10.064Z,15.03
2018-08-23T20:24:38.467Z,14.87
2018-08-23T20:27:07.257Z,14.50
2018-08-23T20:29:36.117Z,14.97
2018-08-23T20:32:05.137Z,15.30
2018-08-23T20:34:33.518Z,13.10
2018-08-23T20:37:01.981Z,14.47
2018-08-23T20:39:30.440Z,12.70
2018-08-23T20:41:58.784Z,16.23
2018-08-23T20:44:27.157Z,16.00
2018-08-23T20:46:55.848Z,15.73
2018-08-23T20:49:24.290Z,17.57
2018-08-23T20:51:52.988Z,16.37
2018-08-23T20:54:21.341Z,14.20
2018-08-23T20:56:49.702Z,12.87
2018-08-23T20:59:18.437Z,15.37
2018-08-23T21:01:47.015Z,15.60
2018-08-23T21:04:15.508Z,14.03
2018-08-23T21:06:43.866Z,13.50
2018-08-23T21:09:14.380Z,12.70
2018-08-23T21:11:42.697Z,13.13
2018-08-23T21:14:11.488Z,14.03
2018-08-23T21:16:40.154Z,14.30
2018-08-23T21:19:08.887Z,11.77
2018-08-23T21:21:37.460Z,18.37
2018-08-23T21:24:05.984Z,11.77
2018-08-23T21:26:34.464Z,13.83
2018-08-23T21:29:02.946Z,11.80
2018-08-23T21:31:31.413Z,13.00
2018-08-23T21:33:59.764Z,12.40
2018-08-23T21:36:28.141Z,13.60
2018-08-23T21:38:56.542Z,14.63
2018-08-23T21:41:25.519Z,13.47
2018-08-23T21:43:54.560Z,12.07
2018-08-23T21:46:23.576Z,12.67
2018-08-23T21:48:51.876Z,13.27
2018-08-23T21:51:20.237Z,15.37
2018-08-23T21:53:48.696Z,14.90
2018-08-23T21:56:17.015Z,15.10
2018-08-23T21:58:45.360Z,18.10
2018-08-23T22:01:13.658Z,13.50
2018-08-23T22:03:42.047Z,15.97
2018-08-23T22:09:31.310Z,14.47
2018-08-23T22:11:59.839Z,19.40
2018-08-23T22:14:28.301Z,21.13
2018-08-23T22:16:59.560Z,23.80
2018-08-23T22:19:28.021Z,21.47
2018-08-23T22:21:56.432Z,18.63
2018-08-23T22:24:24.828Z,21.03
2018-08-23T22:32:58.615Z,19.00
2018-08-23T22:35:27.038Z,17.33
2018-08-23T22:49:17.900Z,19.33
2018-08-23T22:51:47.409Z,20.40
2018-08-23T23:02:48.806Z,19.10
2018-08-23T23:05:17.164Z,22.90
2018-08-23T23:07:47.358Z,22.83
2018-08-23T23:13:06.270Z,19.47
2018-08-23T23:15:46.916Z,21.10
2018-08-23T23:18:15.280Z,23.53
2018-08-23T23:20:43.645Z,23.20
2018-08-23T23:28:53.238Z,20.60
2018-08-23T23:31:21.605Z,24.83
2018-08-23T23:33:50.050Z,25.60
2018-08-23T23:36:18.404Z,26.30
2018-08-23T23:38:46.862Z,26.03
2018-08-23T23:44:06.118Z,28.07
2018-08-23T23:46:34.524Z,28.53
2018-08-23T23:49:03.067Z,22.10
2018-08-23T23:51:31.377Z,20.70
2018-08-23T23:56:50.209Z,24.80
